Observation data for Haskell on 02/14/2017      Previous  Date  Next       Current Mesonet Observations  Soil Data  Daily Summary Page  Observations in Plain Language
KHA1 140600Z 03014KT 04/04 A30 RMK A01 T00400037  RH  100%=      5-min Rain = 0.01
KHA1 140605Z 04014KT 04/04 A30 RMK A01 T00400037  RH  100%=      5-min Rain = 0.01
KHA1 140610Z 05015KT 04/04 A2999 RMK A01 T00400037  RH  100%=      5-min Rain = 0.01
KHA1 140615Z 04017KT 04/04 A2998 RMK A01 T00400037  RH  100%=      5-min Rain = 0.01
KHA1 140620Z 02013KT 04/04 A2999 RMK A01 T00400037  RH  100%=      5-min Rain = 0.01
KHA1 140625Z 34013KT 04/04 A3002 RMK A01 T00410038  RH  100%=      5-min Rain = 0.01
KHA1 140630Z 34015KT 04/04 A3002 RMK A01 T00410038  RH  100%=      5-min Rain = 0.02
KHA1 140635Z 35014KT 04/04 A3001 RMK A01 T00410038  RH  100%=      5-min Rain = 0.01
KHA1 140640Z 35012KT 04/04 A3002 RMK A01 T00410038  RH  100%=      5-min Rain = 0.02
KHA1 140645Z 35014KT 04/04 A3001 RMK A01 T00410038  RH  100%=      5-min Rain = 0.02
KHA1 140650Z 35013KT 04/04 A3001 RMK A01 T00410038  RH  100%=      5-min Rain = 0.01
KHA1 140655Z 35014KT 04/04 A3001 RMK A01 T00410038  RH  100%=      5-min Rain = 0.01
KHA1 140700Z 35014KT 04/04 A30 RMK A01 T00420039  RH  100%=      5-min Rain = 0.01
KHA1 140705Z 34013KT 04/04 A30 RMK A01 T00420039  RH  100%=      5-min Rain = 0.01
KHA1 140710Z 34013KT 04/04 A3001 RMK A01 T00410039  RH  100%=      5-min Rain = 0.01
KHA1 140715Z 35013KT 04/04 A3002 RMK A01 T00410038  RH  100%=      5-min Rain = 0.01
KHA1 140720Z 35011KT 04/04 A3003 RMK A01 T00410039  RH  100%=      5-min Rain = 0.01
KHA1 140725Z 36010KT 04/04 A3003 RMK A01 T00420039  RH  100%=      5-min Rain = 0.01
KHA1 140730Z 35010KT 04/04 A3003 RMK A01 T00420039  RH  100%=      5-min Rain = 0.02
KHA1 140735Z 36011KT 04/04 A3004 RMK A01 T00420039  RH  100%=      5-min Rain = 0.01
KHA1 140740Z 35011KT 04/04 A3003 RMK A01 T00420040  RH  100%=      5-min Rain = 0.02
KHA1 140745Z 36011KT 04/04 A3003 RMK A01 T00420040  RH  100%=      5-min Rain = 0.02
KHA1 140750Z 36011KT 04/04 A3003 RMK A01 T00420039  RH  100%=      5-min Rain = 0.02
KHA1 140755Z 36011KT 04/04 A3003 RMK A01 T00420039  RH  100%=      5-min Rain = 0.01
KHA1 140800Z 36012KT 04/04 A3003 RMK A01 T00420039  RH  100%=      5-min Rain = 0.02
KHA1 140805Z 00012KT 04/04 A3002 RMK A01 T00420039  RH  100%=      5-min Rain = 0.01
KHA1 140810Z 01012KT 04/04 A3001 RMK A01 T00420039  RH  100%=      5-min Rain = 0
KHA1 140815Z 01012KT 04/04 A30 RMK A01 T00420039  RH  100%=      5-min Rain = 0.01
KHA1 140820Z 01013KT 04/04 A30 RMK A01 T00420040  RH  100%=      5-min Rain = 0.01
KHA1 140825Z 00011KT 04/04 A30 RMK A01 T00420040  RH  100%=      5-min Rain = 0.01
KHA1 140830Z 00011KT 04/04 A30 RMK A01 T00430040  RH  100%=      5-min Rain = 0.01
KHA1 140835Z 36010KT 04/04 A30 RMK A01 T00430040  RH  100%=      5-min Rain = 0
KHA1 140840Z 00010KT 04/04 A2999 RMK A01 T00430040  RH  100%=      5-min Rain = 0.01
KHA1 140845Z 00011KT 04/04 A2999 RMK A01 T00430040  RH  100%=      5-min Rain = 0
KHA1 140850Z 00010KT 04/04 A2999 RMK A01 T00430040  RH  100%=      5-min Rain = 0.01
KHA1 140855Z 00010KT 04/04 A2999 RMK A01 T00430040  RH  100%=      5-min Rain = 0
KHA1 140900Z 01011KT 04/04 A2998 RMK A01 T00430040  RH  100%=      5-min Rain = 0
KHA1 140905Z 02014KT 04/04 A2996 RMK A01 T00430041  RH  100%=      5-min Rain = 0
KHA1 140910Z 04015KT 04/04 A2994 RMK A01 T00440041  RH  100%=      5-min Rain = 0.01
KHA1 140915Z 05018KT 04/04 A2991 RMK A01 T00440041  RH  100%=      5-min Rain = 0
KHA1 140920Z 03014G19KT 04/04 A2995 RMK A01 T00440041  RH  100%=      5-min Rain = 0
KHA1 140925Z 34011KT 05/04 A2999 RMK A01 T00450042  RH  100%=      5-min Rain = 0
KHA1 140930Z 30012KT 05/04 A3003 RMK A01 T00450042  RH  100%=      5-min Rain = 0
KHA1 140935Z 31012KT 05/04 A3004 RMK A01 T00460043  RH  100%=      5-min Rain = 0
KHA1 140940Z 32011KT 05/04 A3003 RMK A01 T00460043  RH  100%=      5-min Rain = 0
KHA1 140945Z 31011KT 05/04 A3003 RMK A01 T00460043  RH  100%=      5-min Rain = 0
KHA1 140950Z 32010KT 05/04 A3003 RMK A01 T00460043  RH  100%=      5-min Rain = 0
KHA1 140955Z 32010KT 05/04 A3003 RMK A01 T00460043  RH  100%=      5-min Rain = 0
KHA1 141000Z 32010KT 05/04 A3002 RMK A01 T00460043  RH  100%=      5-min Rain = 0
KHA1 141005Z 32009KT 05/04 A3001 RMK A01 T00460043  RH  100%=      5-min Rain = 0
KHA1 141010Z 32012KT 05/04 A30 RMK A01 T00450043  RH  100%=      5-min Rain = 0.01
KHA1 141015Z 34011KT 05/04 A2999 RMK A01 T00450042  RH  100%=      5-min Rain = 0
KHA1 141020Z 35012KT 04/04 A2998 RMK A01 T00440042  RH  100%=      5-min Rain = 0
KHA1 141025Z 00015KT 04/04 A2996 RMK A01 T00440041  RH  100%=      5-min Rain = 0
KHA1 141030Z 01014KT 04/04 A2994 RMK A01 T00440041  RH  100%=      5-min Rain = 0
KHA1 141035Z 00012KT 04/04 A2995 RMK A01 T00440041  RH  100%=      5-min Rain = 0
KHA1 141040Z 35012KT 04/04 A2997 RMK A01 T00440041  RH  100%=      5-min Rain = 0
KHA1 141045Z 33014G19KT 05/04 A2998 RMK A01 T00450042  RH  100%=      5-min Rain = 0
KHA1 141050Z 32014KT 04/04 A2999 RMK A01 T00440042  RH  100%=      5-min Rain = 0
KHA1 141055Z 31015KT 04/04 A3001 RMK A01 T00440041  RH  100%=      5-min Rain = 0
KHA1 141100Z 32013G18KT 04/04 A2999 RMK A01 T00440041  RH  100%=      5-min Rain = 0
KHA1 141105Z 32015G20KT 04/04 A30 RMK A01 T00440041  RH  100%=      5-min Rain = 0
KHA1 141110Z 32015G20KT 04/04 A30 RMK A01 T00430040  RH  100%=      5-min Rain = 0
KHA1 141115Z 32016KT 04/04 A30 RMK A01 T00430040  RH  100%=      5-min Rain = 0
KHA1 141120Z 32016KT 04/04 A30 RMK A01 T00430040  RH  100%=      5-min Rain = 0
KHA1 141125Z 33015KT 04/04 A2999 RMK A01 T00430040  RH  100%=      5-min Rain = 0
KHA1 141130Z 33014G19KT 04/04 A2999 RMK A01 T00430040  RH  100%=      5-min Rain = 0
KHA1 141135Z 33015G20KT 04/04 A2999 RMK A01 T00430040  RH  100%=      5-min Rain = 0
KHA1 141140Z 34015KT 04/04 A2999 RMK A01 T00420039  RH  100%=      5-min Rain = 0.01
KHA1 141145Z 34014KT 04/04 A2999 RMK A01 T00420039  RH  100%=      5-min Rain = 0
KHA1 141150Z 35011KT 04/04 A2999 RMK A01 T00430040  RH  100%=      5-min Rain = 0
KHA1 141155Z 34013KT 04/04 A2999 RMK A01 T00420039  RH  100%=      5-min Rain = 0
KHA1 141200Z 35014KT 04/04 A2999 RMK A01 T00420039  RH  100%=      5-min Rain = 0
KHA1 141205Z 35014G19KT 04/04 A2998 RMK A01 T00420039  RH  100%=      5-min Rain = 0
KHA1 141210Z 35015KT 04/04 A2997 RMK A01 T00420039  RH  100%=      5-min Rain = 0
KHA1 141215Z 33012G17KT 04/04 A2998 RMK A01 T00420039  RH  100%=      5-min Rain = 0
KHA1 141220Z 34015KT 04/04 A2998 RMK A01 T00420039  RH  100%=      5-min Rain = 0
KHA1 141225Z 33015KT 04/04 A2999 RMK A01 T00410039  RH  100%=      5-min Rain = 0
KHA1 141230Z 34014KT 04/04 A2998 RMK A01 T00410039  RH  100%=      5-min Rain = 0
KHA1 141235Z 34014G19KT 04/04 A2999 RMK A01 T00410038  RH  100%=      5-min Rain = 0
KHA1 141240Z 33013KT 04/04 A30 RMK A01 T00410038  RH  100%=      5-min Rain = 0
KHA1 141245Z 33012G17KT 04/04 A30 RMK A01 T00410038  RH  100%=      5-min Rain = 0
KHA1 141250Z 34012KT 04/04 A2999 RMK A01 T00410039  RH  100%=      5-min Rain = 0
KHA1 141255Z 35012KT 04/04 A2999 RMK A01 T00410038  RH  100%=      5-min Rain = 0
KHA1 141300Z 34012KT 04/04 A2999 RMK A01 T00410039  RH  100%=      5-min Rain = 0
KHA1 141305Z 34013KT 04/04 A2999 RMK A01 T00410038  RH  100%=      5-min Rain = 0
KHA1 141310Z 34013KT 04/04 A30 RMK A01 T00410038  RH  100%=      5-min Rain = 0
KHA1 141315Z 33013KT 04/04 A30 RMK A01 T00400037  RH  100%=      5-min Rain = 0
KHA1 141320Z 34015KT 04/04 A30 RMK A01 T00400037  RH  100%=      5-min Rain = 0
KHA1 141325Z 34014KT 04/04 A30 RMK A01 T00390037  RH  100%=      5-min Rain = 0
KHA1 141330Z 34014G19KT 04/04 A30 RMK A01 T00390036  RH  100%=      5-min Rain = 0
KHA1 141335Z 35014KT 04/04 A3001 RMK A01 T00390036  RH  100%=      5-min Rain = 0
KHA1 141340Z 34012KT 04/04 A3001 RMK A01 T00390037  RH  100%=      5-min Rain = 0
KHA1 141345Z 35013KT 04/04 A3002 RMK A01 T00390037  RH  100%=      5-min Rain = 0
KHA1 141350Z 35012KT 04/04 A3002 RMK A01 T00390037  RH  100%=      5-min Rain = 0
KHA1 141355Z 35012KT 04/04 A3002 RMK A01 T00390037  RH  100%=      5-min Rain = 0
KHA1 141400Z 35012KT 04/04 A3002 RMK A01 T00400037  RH  100%=      5-min Rain = 0
KHA1 141405Z 35012KT 04/04 A3002 RMK A01 T00400037  RH  100%=      5-min Rain = 0
KHA1 141410Z 35013KT 04/04 A3002 RMK A01 T00400037  RH  100%=      5-min Rain = 0
KHA1 141415Z 35013KT 04/04 A3002 RMK A01 T00400037  RH  100%=      5-min Rain = 0
KHA1 141420Z 35012KT 04/04 A3002 RMK A01 T00400037  RH  100%=      5-min Rain = 0
KHA1 141425Z 35013KT 04/04 A3002 RMK A01 T00400038  RH  100%=      5-min Rain = 0
KHA1 141430Z 35013KT 04/04 A3002 RMK A01 T00400038  RH  100%=      5-min Rain = 0
KHA1 141435Z 34014KT 04/04 A3003 RMK A01 T00410038  RH  100%=      5-min Rain = 0
KHA1 141440Z 35012KT 04/04 A3003 RMK A01 T00410038  RH  100%=      5-min Rain = 0
KHA1 141445Z 35013KT 04/04 A3003 RMK A01 T00410038  RH  100%=      5-min Rain = 0
KHA1 141450Z 35011KT 04/04 A3003 RMK A01 T00420039  RH  100%=      5-min Rain = 0
KHA1 141455Z 35012KT 04/04 A3004 RMK A01 T00420039  RH  100%=      5-min Rain = 0
KHA1 141500Z 35014KT 04/04 A3004 RMK A01 T00420039  RH  100%=      5-min Rain = 0
KHA1 141505Z 35014KT 04/04 A3004 RMK A01 T00410039  RH  100%=      5-min Rain = 0
KHA1 141510Z 34013KT 04/04 A3004 RMK A01 T00420039  RH  100%=      5-min Rain = 0
KHA1 141515Z 34014KT 04/04 A3003 RMK A01 T00420039  RH  100%=      5-min Rain = 0
KHA1 141520Z 34014KT 04/04 A3004 RMK A01 T00420040  RH  100%=      5-min Rain = 0
KHA1 141525Z 34014KT 04/04 A3004 RMK A01 T00430040  RH  100%=      5-min Rain = 0
KHA1 141530Z 34013G18KT 04/04 A3004 RMK A01 T00430040  RH  100%=      5-min Rain = 0
KHA1 141535Z 34012G17KT 04/04 A3004 RMK A01 T00430041  RH  100%=      5-min Rain = 0
KHA1 141540Z 34014KT 04/04 A3004 RMK A01 T00430040  RH  100%=      5-min Rain = 0
KHA1 141545Z 34014KT 04/04 A3004 RMK A01 T00430040  RH  100%=      5-min Rain = 0
KHA1 141550Z 34014KT 04/04 A3004 RMK A01 T00430040  RH  100%=      5-min Rain = 0
KHA1 141555Z 34015KT 04/04 A3004 RMK A01 T00430040  RH  100%=      5-min Rain = 0
KHA1 141600Z 35015KT 04/04 A3004 RMK A01 T00430040  RH  100%=      5-min Rain = 0
KHA1 141605Z 35015KT 04/04 A3004 RMK A01 T00430040  RH  100%=      5-min Rain = 0
KHA1 141610Z 34012G17KT 04/04 A3004 RMK A01 T00440041  RH  100%=      5-min Rain = 0
KHA1 141615Z 34014KT 04/04 A3004 RMK A01 T00440041  RH  100%=      5-min Rain = 0
KHA1 141620Z 34014KT 04/04 A3004 RMK A01 T00440042  RH  100%=      5-min Rain = 0
KHA1 141625Z 34013KT 05/04 A3004 RMK A01 T00450042  RH  100%=      5-min Rain = 0
KHA1 141630Z 34013KT 05/04 A3004 RMK A01 T00450043  RH  100%=      5-min Rain = 0.01
KHA1 141635Z 34013KT 05/04 A3004 RMK A01 T00450042  RH  100%=      5-min Rain = 0
KHA1 141640Z 34012KT 05/04 A3005 RMK A01 T00460043  RH  100%=      5-min Rain = 0
KHA1 141645Z 34014KT 05/04 A3005 RMK A01 T00450042  RH  100%=      5-min Rain = 0
KHA1 141650Z 34014KT 05/04 A3005 RMK A01 T00450043  RH  100%=      5-min Rain = 0
KHA1 141655Z 34014KT 05/04 A3005 RMK A01 T00450042  RH  100%=      5-min Rain = 0
KHA1 141700Z 34014KT 05/04 A3005 RMK A01 T00460043  RH  100%=      5-min Rain = 0
KHA1 141705Z 33013KT 05/04 A3005 RMK A01 T00460043  RH  100%=      5-min Rain = 0
KHA1 141710Z 34015KT 05/04 A3005 RMK A01 T00450043  RH  100%=      5-min Rain = 0
KHA1 141715Z 34016KT 04/04 A3006 RMK A01 T00440042  RH  100%=      5-min Rain = 0
KHA1 141720Z 34015KT 04/04 A3006 RMK A01 T00440042  RH  100%=      5-min Rain = 0
KHA1 141725Z 34015KT 04/04 A3006 RMK A01 T00440041  RH  100%=      5-min Rain = 0
KHA1 141730Z 34013KT 04/04 A3006 RMK A01 T00440041  RH  100%=      5-min Rain = 0
KHA1 141735Z 34014G19KT 04/04 A3006 RMK A01 T00440041  RH  100%=      5-min Rain = 0
KHA1 141740Z 34015KT 05/04 A3005 RMK A01 T00450042  RH  100%=      5-min Rain = 0
KHA1 141745Z 34017KT 05/04 A3005 RMK A01 T00460043  RH  100%=      5-min Rain = 0
KHA1 141750Z 34017KT 05/04 A3005 RMK A01 T00460043  RH  100%=      5-min Rain = 0
KHA1 141755Z 34016G22KT 05/04 A3005 RMK A01 T00470044  RH  100%=      5-min Rain = 0
KHA1 141800Z 35016KT 05/04 A3005 RMK A01 T00450041  RH  099%=      5-min Rain = 0
KHA1 141805Z 34016KT 05/04 A3005 RMK A01 T00450041  RH  099%=      5-min Rain = 0
KHA1 141810Z 34015KT 05/04 A3005 RMK A01 T00450041  RH  099%=      5-min Rain = 0
KHA1 141815Z 35014G19KT 05/04 A3005 RMK A01 T00460041  RH  098%=      5-min Rain = 0
KHA1 141820Z 35015KT 05/04 A3005 RMK A01 T00470039  RH  097%=      5-min Rain = 0
KHA1 141825Z 35016KT 05/04 A3004 RMK A01 T00470038  RH  096%=      5-min Rain = 0
KHA1 141830Z 35016KT 05/04 A3004 RMK A01 T00480039  RH  096%=      5-min Rain = 0
KHA1 141835Z 36016KT 05/04 A3004 RMK A01 T00480038  RH  095%=      5-min Rain = 0
KHA1 141840Z 36014G19KT 05/05 A3003 RMK A01 T00510045  RH  098%=      5-min Rain = 0
KHA1 141845Z 36015G20KT 05/04 A3003 RMK A01 T00520041  RH  095%=      5-min Rain = 0
KHA1 141850Z 36016KT 05/04 A3004 RMK A01 T00520040  RH  094%=      5-min Rain = 0
KHA1 141855Z 35016KT 05/04 A3004 RMK A01 T00520037  RH  092%=      5-min Rain = 0
KHA1 141900Z 34014KT 05/04 A3004 RMK A01 T00520042  RH  095%=      5-min Rain = 0
KHA1 141905Z 34013KT 05/04 A3004 RMK A01 T00500041  RH  095%=      5-min Rain = 0
KHA1 141910Z 35015KT 05/04 A3004 RMK A01 T00500039  RH  094%=      5-min Rain = 0
KHA1 141915Z 36014KT 05/04 A3004 RMK A01 T00510037  RH  093%=      5-min Rain = 0
KHA1 141920Z 36014KT 05/04 A3004 RMK A01 T00510036  RH  092%=      5-min Rain = 0
KHA1 141925Z 34015KT 05/04 A3004 RMK A01 T00510038  RH  093%=      5-min Rain = 0
KHA1 141930Z 34014KT 05/04 A3004 RMK A01 T00510040  RH  095%=      5-min Rain = 0.01
KHA1 141935Z 35014KT 05/04 A3004 RMK A01 T00520039  RH  093%=      5-min Rain = 0
KHA1 141940Z 35013KT 05/04 A3004 RMK A01 T00520037  RH  092%=      5-min Rain = 0
KHA1 141945Z 35013G18KT 05/04 A3003 RMK A01 T00520040  RH  094%=      5-min Rain = 0
KHA1 141950Z 35013G19KT 05/04 A3003 RMK A01 T00530040  RH  094%=      5-min Rain = 0
KHA1 141955Z 35015KT 05/04 A3003 RMK A01 T00510035  RH  091%=      5-min Rain = 0
KHA1 142000Z 35014G19KT 05/04 A3003 RMK A01 T00510041  RH  095%=      5-min Rain = 0
KHA1 142005Z 35016KT 05/04 A3003 RMK A01 T00510038  RH  093%=      5-min Rain = 0
KHA1 142010Z 34017G22KT 05/04 A3002 RMK A01 T00510037  RH  093%=      5-min Rain = 0
KHA1 142015Z 35017KT 05/04 A3002 RMK A01 T00500036  RH  092%=      5-min Rain = 0
KHA1 142020Z 35017KT 05/04 A3002 RMK A01 T00490036  RH  093%=      5-min Rain = 0
KHA1 142025Z 35016KT 05/04 A3002 RMK A01 T00490039  RH  095%=      5-min Rain = 0
KHA1 142030Z 35017G22KT 05/04 A3002 RMK A01 T00480037  RH  095%=      5-min Rain = 0
KHA1 142035Z 35017KT 05/04 A3002 RMK A01 T00460037  RH  095%=      5-min Rain = 0
KHA1 142040Z 34017G23KT 05/04 A3003 RMK A01 T00460040  RH  097%=      5-min Rain = 0
KHA1 142045Z 34018G24KT 05/04 A3002 RMK A01 T00450036  RH  095%=      5-min Rain = 0
KHA1 142050Z 34018KT 05/04 A3003 RMK A01 T00450037  RH  096%=      5-min Rain = 0
KHA1 142055Z 35016KT 05/04 A3003 RMK A01 T00450039  RH  098%=      5-min Rain = 0
KHA1 142100Z 34014KT 05/04 A3003 RMK A01 T00450041  RH  099%=      5-min Rain = 0
KHA1 142105Z 35017KT 04/04 A3004 RMK A01 T00440037  RH  097%=      5-min Rain = 0
KHA1 142110Z 34016G21KT 04/04 A3004 RMK A01 T00440040  RH  099%=      5-min Rain = 0
KHA1 142115Z 34017KT 04/04 A3003 RMK A01 T00420037  RH  098%=      5-min Rain = 0
KHA1 142120Z 34016G21KT 04/04 A3004 RMK A01 T00420037  RH  099%=      5-min Rain = 0
KHA1 142125Z 34016G21KT 04/04 A3004 RMK A01 T00420036  RH  098%=      5-min Rain = 0
KHA1 142130Z 34016G21KT 04/03 A3003 RMK A01 T00410033  RH  096%=      5-min Rain = 0
KHA1 142135Z 35015G22KT 04/04 A3004 RMK A01 T00420035  RH  097%=      5-min Rain = 0
KHA1 142140Z 35017G22KT 04/03 A3004 RMK A01 T00420027  RH  092%=      5-min Rain = 0
KHA1 142145Z 35016G21KT 04/03 A3004 RMK A01 T00430026  RH  091%=      5-min Rain = 0
KHA1 142150Z 35015G20KT 04/03 A3004 RMK A01 T00440027  RH  090%=      5-min Rain = 0
KHA1 142155Z 35017KT 04/03 A3004 RMK A01 T00440025  RH  089%=      5-min Rain = 0
KHA1 142200Z 35016G21KT 04/03 A3004 RMK A01 T00440025  RH  089%=      5-min Rain = 0
KHA1 142205Z 34017G22KT 04/03 A3004 RMK A01 T00440025  RH  089%=      5-min Rain = 0
KHA1 142210Z 35016KT 04/03 A3004 RMK A01 T00440026  RH  089%=      5-min Rain = 0
KHA1 142215Z 35016KT 04/03 A3005 RMK A01 T00430025  RH  089%=      5-min Rain = 0
KHA1 142220Z 35016G21KT 04/03 A3005 RMK A01 T00430026  RH  090%=      5-min Rain = 0
KHA1 142225Z 34017KT 04/02 A3005 RMK A01 T00420024  RH  089%=      5-min Rain = 0
KHA1 142230Z 35015KT 04/03 A3005 RMK A01 T00420025  RH  090%=      5-min Rain = 0
KHA1 142235Z 35017G22KT 04/02 A3006 RMK A01 T00410023  RH  089%=      5-min Rain = 0
KHA1 142240Z 36015KT 04/02 A3006 RMK A01 T00410023  RH  089%=      5-min Rain = 0
KHA1 142245Z 35014G19KT 04/02 A3006 RMK A01 T00410023  RH  089%=      5-min Rain = 0
KHA1 142250Z 35016KT 04/02 A3006 RMK A01 T00410022  RH  089%=      5-min Rain = 0
KHA1 142255Z 35015KT 04/02 A3006 RMK A01 T00420022  RH  089%=      5-min Rain = 0
KHA1 142300Z 35013KT 04/02 A3006 RMK A01 T00420024  RH  089%=      5-min Rain = 0
KHA1 142305Z 35015KT 04/02 A3006 RMK A01 T00420023  RH  088%=      5-min Rain = 0
KHA1 142310Z 34016KT 04/02 A3006 RMK A01 T00420023  RH  089%=      5-min Rain = 0
KHA1 142315Z 34018KT 04/02 A3006 RMK A01 T00410021  RH  088%=      5-min Rain = 0
KHA1 142320Z 33016G21KT 04/02 A3007 RMK A01 T00410024  RH  090%=      5-min Rain = 0
KHA1 142325Z 34016KT 04/02 A3007 RMK A01 T00400024  RH  090%=      5-min Rain = 0
KHA1 142330Z 34015KT 04/02 A3008 RMK A01 T00400024  RH  091%=      5-min Rain = 0
KHA1 142335Z 33017KT 04/02 A3008 RMK A01 T00390023  RH  091%=      5-min Rain = 0
KHA1 142340Z 34017KT 04/02 A3008 RMK A01 T00390023  RH  091%=      5-min Rain = 0
KHA1 142345Z 34016KT 04/03 A3008 RMK A01 T00390025  RH  092%=      5-min Rain = 0
KHA1 142350Z 34017KT 04/03 A3008 RMK A01 T00380025  RH  093%=      5-min Rain = 0
KHA1 142355Z 34015KT 04/03 A3008 RMK A01 T00380026  RH  094%=      5-min Rain = 0
KHA1 150000Z 35014KT 04/03 A3009 RMK A01 T00370032  RH  098%=      5-min Rain = 0
KHA1 150005Z 35014KT 04/03 A3009 RMK A01 T00370034  RH  100%=      5-min Rain = 0
KHA1 150010Z 35012KT 04/03 A3009 RMK A01 T00360034  RH  100%=      5-min Rain = 0
KHA1 150015Z 35012KT 04/03 A3009 RMK A01 T00360034  RH  100%=      5-min Rain = 0
KHA1 150020Z 35012KT 04/03 A301 RMK A01 T00360034  RH  100%=      5-min Rain = 0
KHA1 150025Z 35011KT 04/03 A301 RMK A01 T00360034  RH  100%=      5-min Rain = 0
KHA1 150030Z 34010KT 04/03 A301 RMK A01 T00370034  RH  100%=      5-min Rain = 0
KHA1 150035Z 35011KT 04/03 A301 RMK A01 T00370034  RH  100%=      5-min Rain = 0
KHA1 150040Z 35011KT 04/03 A301 RMK A01 T00370034  RH  100%=      5-min Rain = 0
KHA1 150045Z 35011KT 04/04 A301 RMK A01 T00370035  RH  100%=      5-min Rain = 0
KHA1 150050Z 35012KT 04/04 A301 RMK A01 T00380035  RH  100%=      5-min Rain = 0
KHA1 150055Z 35013KT 04/04 A301 RMK A01 T00380035  RH  100%=      5-min Rain = 0
KHA1 150100Z 35014KT 04/04 A3011 RMK A01 T00380035  RH  100%=      5-min Rain = 0
KHA1 150105Z 35014KT 04/04 A3011 RMK A01 T00390036  RH  100%=      5-min Rain = 0
KHA1 150110Z 35012KT 04/04 A3011 RMK A01 T00390036  RH  100%=      5-min Rain = 0
KHA1 150115Z 35012KT 04/04 A3011 RMK A01 T00390036  RH  100%=      5-min Rain = 0
KHA1 150120Z 35014KT 04/04 A3012 RMK A01 T00390037  RH  100%=      5-min Rain = 0
KHA1 150125Z 35016KT 04/04 A3012 RMK A01 T00380036  RH  100%=      5-min Rain = 0
KHA1 150130Z 36015KT 04/04 A3012 RMK A01 T00370035  RH  100%=      5-min Rain = 0
KHA1 150135Z 36012G18KT 04/03 A3012 RMK A01 T00370034  RH  100%=      5-min Rain = 0
KHA1 150140Z 35012G17KT 04/03 A3012 RMK A01 T00370034  RH  100%=      5-min Rain = 0
KHA1 150145Z 35011KT 04/04 A3012 RMK A01 T00370035  RH  100%=      5-min Rain = 0
KHA1 150150Z 35010KT 04/04 A3012 RMK A01 T00370035  RH  100%=      5-min Rain = 0
KHA1 150155Z 34009KT 04/04 A3012 RMK A01 T00380035  RH  100%=      5-min Rain = 0
KHA1 150200Z 34009KT 04/04 A3012 RMK A01 T00380035  RH  100%=      5-min Rain = 0
KHA1 150205Z 33010KT 04/04 A3012 RMK A01 T00380035  RH  100%=      5-min Rain = 0
KHA1 150210Z 33009KT 04/04 A3012 RMK A01 T00380035  RH  100%=      5-min Rain = 0
KHA1 150215Z 32009KT 04/04 A3012 RMK A01 T00380036  RH  100%=      5-min Rain = 0
KHA1 150220Z 31009KT 04/04 A3012 RMK A01 T00390036  RH  100%=      5-min Rain = 0
KHA1 150225Z 31009KT 04/04 A3013 RMK A01 T00390037  RH  100%=      5-min Rain = 0
KHA1 150230Z 32009KT 04/04 A3013 RMK A01 T00400037  RH  100%=      5-min Rain = 0
KHA1 150235Z 32009KT 04/04 A3013 RMK A01 T00400037  RH  100%=      5-min Rain = 0
KHA1 150240Z 32009KT 04/04 A3014 RMK A01 T00400038  RH  100%=      5-min Rain = 0
KHA1 150245Z 31009KT 04/04 A3014 RMK A01 T00410038  RH  100%=      5-min Rain = 0
KHA1 150250Z 31009KT 04/04 A3014 RMK A01 T00410037  RH  099%=      5-min Rain = 0
KHA1 150255Z 30009KT 04/04 A3014 RMK A01 T00410037  RH  099%=      5-min Rain = 0
KHA1 150300Z 30009KT 04/04 A3014 RMK A01 T00410036  RH  098%=      5-min Rain = 0
KHA1 150305Z 30008KT 04/04 A3014 RMK A01 T00410036  RH  098%=      5-min Rain = 0
KHA1 150310Z 29007KT 04/04 A3014 RMK A01 T00410035  RH  098%=      5-min Rain = 0
KHA1 150315Z 29006KT 04/03 A3015 RMK A01 T00410034  RH  097%=      5-min Rain = 0
KHA1 150320Z 29006KT 04/04 A3015 RMK A01 T00410035  RH  097%=      5-min Rain = 0
KHA1 150325Z 29006KT 04/03 A3015 RMK A01 T00410034  RH  097%=      5-min Rain = 0
KHA1 150330Z 28007KT 04/03 A3015 RMK A01 T00410034  RH  097%=      5-min Rain = 0
KHA1 150335Z 28007KT 04/03 A3015 RMK A01 T00420032  RH  095%=      5-min Rain = 0
KHA1 150340Z 28007KT 04/03 A3015 RMK A01 T00420032  RH  095%=      5-min Rain = 0
KHA1 150345Z 28007KT 04/03 A3015 RMK A01 T00420032  RH  095%=      5-min Rain = 0
KHA1 150350Z 29006KT 04/03 A3015 RMK A01 T00420031  RH  095%=      5-min Rain = 0
KHA1 150355Z 29005KT 04/03 A3015 RMK A01 T00420031  RH  094%=      5-min Rain = 0
KHA1 150400Z 28005KT 04/03 A3015 RMK A01 T00430034  RH  096%=      5-min Rain = 0
KHA1 150405Z 27006KT 04/04 A3015 RMK A01 T00420036  RH  097%=      5-min Rain = 0
KHA1 150410Z 27006KT 04/04 A3015 RMK A01 T00420037  RH  098%=      5-min Rain = 0
KHA1 150415Z 27007KT 04/04 A3015 RMK A01 T00430036  RH  097%=      5-min Rain = 0
KHA1 150420Z 27007KT 04/03 A3015 RMK A01 T00430034  RH  096%=      5-min Rain = 0
KHA1 150425Z 27007KT 04/03 A3015 RMK A01 T00430032  RH  094%=      5-min Rain = 0
KHA1 150430Z 27006KT 04/03 A3014 RMK A01 T00440032  RH  094%=      5-min Rain = 0
KHA1 150435Z 28007KT 04/03 A3014 RMK A01 T00440031  RH  093%=      5-min Rain = 0
KHA1 150440Z 29008KT 04/03 A3014 RMK A01 T00440030  RH  092%=      5-min Rain = 0
KHA1 150445Z 29008KT 04/03 A3014 RMK A01 T00440027  RH  090%=      5-min Rain = 0
KHA1 150450Z 29008KT 05/03 A3014 RMK A01 T00450028  RH  091%=      5-min Rain = 0
KHA1 150455Z 29008KT 05/03 A3014 RMK A01 T00450028  RH  090%=      5-min Rain = 0
KHA1 150500Z 29008KT 05/03 A3013 RMK A01 T00450028  RH  090%=      5-min Rain = 0
KHA1 150505Z 29009KT 05/03 A3013 RMK A01 T00450028  RH  090%=      5-min Rain = 0
KHA1 150510Z 30010KT 05/03 A3013 RMK A01 T00460027  RH  089%=      5-min Rain = 0
KHA1 150515Z 30010KT 05/03 A3013 RMK A01 T00470026  RH  088%=      5-min Rain = 0
KHA1 150520Z 30008KT 05/03 A3013 RMK A01 T00480026  RH  087%=      5-min Rain = 0
KHA1 150525Z 30008KT 05/03 A3013 RMK A01 T00470026  RH  088%=      5-min Rain = 0
KHA1 150530Z 30008KT 05/03 A3013 RMK A01 T00470027  RH  088%=      5-min Rain = 0
KHA1 150535Z 30008KT 05/03 A3013 RMK A01 T00480027  RH  088%=      5-min Rain = 0
KHA1 150540Z 30009KT 05/02 A3013 RMK A01 T00500024  RH  085%=      5-min Rain = 0
KHA1 150545Z 30009KT 05/02 A3013 RMK A01 T00510024  RH  084%=      5-min Rain = 0
KHA1 150550Z 31009KT 05/02 A3012 RMK A01 T00520024  RH  084%=      5-min Rain = 0
KHA1 150555Z 31011KT 05/02 A3012 RMK A01 T00520023  RH  083%=      5-min Rain = 0

Page generated in 0.0094 seconds.